Tiempo atmosférico en la estación meteorológica de La Vall de Boi, Lleida (1092 m.)



Fecha
DESCASC
Temp. máxima en grados centígrados (hora)
DESCASC
Temp. mínima en grados centígrados (hora)
DESCASC
Temp. media en grados centígrados
DESCASC
Racha de viento máxima en m/sg (hora)
DESCASC
Velocidad máxima media en intervalos de 10 minutos(hora)
DESCASC
Precipitaciones diarias en mm
DESCASC
Precipitaciones de 00:00 a 06:00 en mm
DESCASC
Precipitaciones de 06:00 a 12:00 en mm
DESCASC
Precipitaciones de 12:00 a 18:00 en mm
DESCASC
Precipitaciones de 18:00 a 24:00 en mm
DESCASC

Gráficas

Temp. máximas Temp. mínimas Temp. medias Precipitaciones Rachas de viento máximas Velocidades máximas media en intervalos de 10 minutos

Datos horarios

Fecha y hora oficial Temperatura (ºC) Velocidad del viento (km/h) Dirección del viento Racha (km/h) Dirección de racha Precipitación (mm) Presión (hPa) Tendencia (hPa) Humedad (%)
2020-03-28 23:00:00 2.4 0 Calma 4 Sur 0 -- -- 87
2020-03-28 22:00:00 3.8 0 Calma 5 Sudeste 0 -- -- 82
2020-03-28 21:00:00 5.8 0 Calma 5 Este 0 -- -- 75
2020-03-28 20:00:00 8.8 3 Sudoeste 16 Oeste 0 -- -- 68
2020-03-28 19:00:00 10.5 8 Oeste 19 Sudoeste 0 -- -- 59
2020-03-28 18:00:00 11.2 12 Sudoeste 22 Sudoeste 0 -- -- 57
2020-03-28 17:00:00 12.2 13 Sudoeste 21 Sudoeste 0 -- -- 53
2020-03-28 16:00:00 12.2 10 Sudoeste 20 Sudoeste 0 -- -- 50
2020-03-28 15:00:00 12.1 13 Sudoeste 26 Sudoeste 0 -- -- 49
2020-03-28 14:00:00 12.1 14 Sudoeste 30 Sudoeste 0 -- -- 50
2020-03-28 13:00:00 13.6 17 Sudoeste 28 Sudoeste 0 -- -- 46
2020-03-28 12:00:00 12.7 17 Oeste 27 Oeste 0 -- -- 45
2020-03-28 11:00:00 10.6 14 Sudoeste 21 Sudoeste 0 -- -- 52
2020-03-28 10:00:00 7.5 4 Este 9 Este 0 -- -- 61
2020-03-28 09:00:00 3.4 2 Sudoeste 8 Este 0 -- -- 77
2020-03-28 08:00:00 -0.4 3 Nordeste 5 Sudeste 0 -- -- 94
2020-03-28 07:00:00 -0.5 0 Calma 4 Sudeste 0 -- -- 93
2020-03-28 06:00:00 0.3 0 Calma 3 Sudeste 0 -- -- 90
2020-03-28 05:00:00 1.1 2 Oeste 8 Noroeste 0 -- -- 88
2020-03-28 04:00:00 2 2 Sur 5 Sudeste 0 -- -- 87
2020-03-28 03:00:00 2.5 0 Calma 5 Norte 0 -- -- 84
2020-03-28 02:00:00 2.4 0 Calma 4 Sur 0 -- -- 84
2020-03-28 01:00:00 2 2 Sudeste 6 Noroeste 0 -- -- 85
2020-03-28 00:00:00 1.9 0 Calma 3 Sudeste 0 -- -- 82
2020-03-27 23:00:00 2.9 0 Calma 6 Sur 0 -- -- 76
2020-03-27 22:00:00 4.6 0 Calma 13 Oeste 0 -- -- 69
2020-03-27 21:00:00 5.6 11 Oeste 18 Oeste 0 -- -- 62
2020-03-27 20:00:00 6.6 9 Oeste 22 Oeste 0 -- -- 57
2020-03-27 19:00:00 8 6 Sudoeste 19 Sudoeste 0 -- -- 49
2020-03-27 18:00:00 9.8 11 Sudoeste 24 Sudoeste 0 -- -- 43
2020-03-27 17:00:00 10.8 14 Sudoeste 25 Sudoeste 0 -- -- 39
2020-03-27 16:00:00 10.9 14 Sudoeste 29 Sudoeste 0 -- -- 38
2020-03-27 15:00:00 13 16 Sudoeste 23 Sudoeste 0 -- -- 35
2020-03-27 14:00:00 12.7 9 Sudoeste 17 Sudoeste 0 -- -- 27
2020-03-27 13:00:00 11.3 8 Sudoeste 21 Sudoeste 0 -- -- 28
2020-03-27 12:00:00 9.5 13 Sudoeste 22 Sudoeste 0 -- -- 32
2020-03-27 11:00:00 7.4 12 Sudoeste 20 Sudoeste 0 -- -- 36
2020-03-27 10:00:00 4.2 6 Sudoeste 9 Sudoeste 0 -- -- 50
2020-03-27 09:00:00 -0.4 3 Este 5 Este 0 -- -- 74
2020-03-27 08:00:00 -4 2 Este 4 Este 0 -- -- 92
2020-03-27 07:00:00 -5.3 0 Calma 4 Sudeste 0 -- -- 91
2020-03-27 06:00:00 -5.1 0 Calma 3 Sudeste 0 -- -- 91
2020-03-27 05:00:00 -4.6 0 Calma 4 Sudeste 0 -- -- 90
2020-03-27 04:00:00 -4.4 0 Calma 4 Sudeste 0 -- -- 90
2020-03-27 03:00:00 -4 2 Norte 5 Sudeste 0 -- -- 89
2020-03-27 02:00:00 -3.4 0 Calma 4 Sudeste 0 -- -- 87
2020-03-27 01:00:00 -3 0 Calma 3 Sudeste 0 -- -- 86
2020-03-27 00:00:00 -2.5 0 Calma 4 Sudeste 0 -- -- 83
2020-03-26 23:00:00 -1.8 2 Oeste 3 Sudeste 0 -- -- 81
2020-03-26 22:00:00 -1 3 Oeste 4 Sudeste 0 -- -- 75
2020-03-26 21:00:00 0.8 0 Calma 13 Nordeste 0 -- -- 65
2020-03-26 20:00:00 1.6 3 Nordeste 9 Nordeste 0 -- -- 56
2020-03-26 19:00:00 3.7 4 Norte 27 Oeste 0 -- -- 41
2020-03-26 18:00:00 4.8 18 Oeste 31 Oeste 0 -- -- 40
2020-03-26 17:00:00 6.4 9 Nordeste 31 Este 0 -- -- 36
2020-03-26 16:00:00 6.9 16 Este 35 Este 0 -- -- 34
2020-03-26 15:00:00 6.6 17 Este 32 Nordeste 0 -- -- 37
2020-03-26 14:00:00 6.5 19 Nordeste 39 Nordeste 0 -- -- 32
2020-03-26 13:00:00 5.9 21 Nordeste 38 Nordeste 0 -- -- 38
2020-03-26 12:00:00 6 15 Nordeste 33 Este 0 -- -- 39
2020-03-26 11:00:00 4.7 14 Este 31 Este 0 -- -- 51
2020-03-26 10:00:00 4.1 10 Nordeste 20 Nordeste 0 -- -- 47
2020-03-26 09:00:00 2.6 3 Sudeste 14 Sudoeste 0 -- -- 81
2020-03-26 08:00:00 1.1 9 Oeste 17 Oeste 0 -- -- 93
2020-03-26 07:00:00 0.6 3 Nordeste 9 Sudoeste 0.2 -- -- 96
2020-03-26 06:00:00 0.9 7 Oeste 21 Oeste 0 -- -- 93
2020-03-26 05:00:00 0.8 6 Oeste 19 Oeste 0 -- -- 98
2020-03-26 04:00:00 0.8 0 Calma 10 Sudoeste 0 -- -- 98
2020-03-26 03:00:00 0.8 6 Oeste 12 Oeste 0 -- -- 99
2020-03-26 02:00:00 0.2 2 Sudoeste 5 Este 0 -- -- 97
2020-03-26 01:00:00 1.1 2 Sudoeste 6 Sudeste 0 -- -- 96
2020-03-26 00:00:00 1.6 2 Sudeste 7 Sur 0 -- -- 94
2020-03-25 23:00:00 2 5 Sudoeste 13 Sudoeste 0 -- -- 92
2020-03-25 22:00:00 1.9 9 Sudoeste 15 Sudoeste 0 -- -- 93
2020-03-25 21:00:00 2 7 Oeste 18 Oeste 0 -- -- 93
2020-03-25 20:00:00 1.9 11 Oeste 19 Oeste 0 -- -- 94
2020-03-25 19:00:00 2 12 Sudoeste 23 Oeste 0.2 -- -- 93
2020-03-25 18:00:00 2.6 15 Oeste 26 Sudoeste 0 -- -- 89
2020-03-25 17:00:00 4.1 14 Oeste 24 Oeste 0 -- -- 81
2020-03-25 16:00:00 5 14 Oeste 22 Sudoeste 0 -- -- 76
2020-03-25 15:00:00 4.4 17 Oeste 23 Oeste 0 -- -- 80
2020-03-25 14:00:00 2.7 15 Oeste 26 Oeste 0.2 -- -- 91
2020-03-25 13:00:00 2 13 Oeste 25 Oeste 0.4 -- -- 89
2020-03-25 12:00:00 1.6 13 Oeste 23 Oeste 0.2 -- -- 90
2020-03-25 11:00:00 1.2 17 Oeste 27 Oeste 0.4 -- -- 93
2020-03-25 10:00:00 1.8 15 Oeste 28 Sudoeste 0.6 -- -- 95
2020-03-25 09:00:00 1.9 16 Oeste 26 Oeste 0.4 -- -- 92
2020-03-25 08:00:00 2.8 14 Sudoeste 23 Sudoeste 0 -- -- 89
2020-03-25 07:00:00 3.3 10 Oeste 19 Sudoeste 0 -- -- 86
2020-03-25 06:00:00 3.4 11 Oeste 20 Sudoeste 0 -- -- 87
2020-03-25 05:00:00 3.8 12 Oeste 23 Oeste 0 -- -- 88
2020-03-25 04:00:00 4.2 13 Oeste 22 Oeste 0 -- -- 88
2020-03-25 03:00:00 4.5 9 Oeste 17 Oeste 0 -- -- 88
2020-03-25 02:00:00 4.6 10 Oeste 18 Oeste 0 -- -- 89
2020-03-25 01:00:00 4.9 11 Oeste 20 Oeste 0 -- -- 88
2020-03-25 00:00:00 5.4 10 Oeste 18 Sudoeste 0 -- -- 87
2020-03-24 23:00:00 6.1 11 Oeste 18 Oeste 0 -- -- 86
2020-03-24 22:00:00 6.2 6 Oeste 15 Oeste 0 -- -- 87
2020-03-24 21:00:00 6.8 8 Oeste 19 Oeste 0 -- -- 84
2020-03-24 20:00:00 7.3 10 Oeste 23 Oeste 0 -- -- 81
2020-03-24 19:00:00 8.1 12 Oeste 28 Sudoeste 0 -- -- 77
2020-03-24 18:00:00 9.2 16 Sudoeste 34 Sudoeste 0 -- -- 72
2020-03-24 17:00:00 11 16 Sudoeste 28 Sudoeste 0 -- -- 64
2020-03-24 16:00:00 13.3 15 Sudoeste 27 Sudoeste 0 -- -- 54
2020-03-24 15:00:00 15.4 10 Este 26 Nordeste 0 -- -- 26
2020-03-24 14:00:00 15 14 Sudoeste 32 Sudoeste 0 -- -- 52
2020-03-24 13:00:00 13.5 17 Sudoeste 30 Sudoeste 0.2 -- -- 59
2020-03-24 12:00:00 12.4 17 Oeste 27 Sudoeste 0 -- -- 63
2020-03-24 11:00:00 10.8 13 Oeste 22 Sudoeste 0 -- -- 66
2020-03-24 10:00:00 9.5 5 Sur 13 Sudoeste 0 -- -- 74
2020-03-24 09:00:00 5.9 2 Sudeste 5 Sudeste 0 -- -- 100
2020-03-24 08:00:00 2.8 0 Calma 3 Sudeste 0 -- -- 100
2020-03-24 07:00:00 2.1 0 Calma 3 Norte 0 -- -- 100
2020-03-24 06:00:00 1.2 0 Calma 3 Sudeste 0 -- -- 100
2020-03-24 05:00:00 1.1 0 Calma 4 Este 0 -- -- 100
2020-03-24 04:00:00 2 0 Calma 3 Sudeste 0 -- -- 100
2020-03-24 03:00:00 1.9 0 Calma 3 Nordeste 0 -- -- 100
2020-03-24 02:00:00 2 0 Calma 4 Sudeste 0 -- -- 99
2020-03-24 01:00:00 2.8 0 Calma 4 Sudeste 0 -- -- 98
2020-03-24 00:00:00 3.4 0 Calma 3 Sudeste 0 -- -- 97
2020-03-23 23:00:00 4.7 0 Calma 3 Sudeste 0 -- -- 96
2020-03-23 22:00:00 6.1 0 Calma 6 Sudoeste 0 -- -- 98
2020-03-23 21:00:00 6.6 2 Sudeste 5 Sur 0 -- -- 97
2020-03-23 20:00:00 6.9 2 Sudoeste 5 Sudoeste 0 -- -- 96
2020-03-23 19:00:00 7.4 2 Sur 10 Sudoeste 0.2 -- -- 92
2020-03-23 18:00:00 7.9 5 Sudoeste 10 Sudoeste 1.2 -- -- 91
2020-03-23 17:00:00 8.6 0 Calma 13 Oeste 1.8 -- -- 88
2020-03-23 16:00:00 9.4 3 Oeste 9 Sudoeste 0.8 -- -- 79
2020-03-23 15:00:00 9.4 3 Sudoeste 16 Oeste 0.6 -- -- 84
2020-03-23 14:00:00 9.2 9 Sudoeste 24 Oeste 0.4 -- -- 81
2020-03-23 13:00:00 9.6 12 Oeste 21 Sudoeste 0 -- -- 72
2020-03-23 12:00:00 10.1 11 Oeste 19 Sudoeste 0 -- -- 70
2020-03-23 11:00:00 9.4 9 Sudoeste 17 Sudoeste 0 -- -- 75
2020-03-23 10:00:00 6.8 0 Calma 5 Sudoeste 0 -- -- 81
2020-03-23 09:00:00 4.5 3 Sudoeste 7 Sudoeste 0 -- -- 96
2020-03-23 08:00:00 3.1 0 Calma 7 Sudeste 0 -- -- 100
2020-03-23 07:00:00 2.1 2 Noroeste 5 Noroeste 0 -- -- 99
2020-03-23 06:00:00 2.1 0 Calma 3 Sudeste 0 -- -- 96
2020-03-23 05:00:00 3.1 0 Calma 6 Sudeste 0 -- -- 96
2020-03-23 04:00:00 4.3 2 Oeste 4 Noroeste 0 -- -- 96
2020-03-23 03:00:00 5.5 0 Calma 4 Sudeste 0 -- -- 96
2020-03-23 02:00:00 5.9 0 Calma 3 Sudeste 0 -- -- 96
2020-03-23 01:00:00 6 0 Calma 4 Sudeste 0 -- -- 96
2020-03-23 00:00:00 6.1 2 Sudeste 4 Sudeste 0.6 -- -- 95
2020-03-22 23:00:00 6.5 0 Calma 5 Sudeste 0.2 -- -- 93
2020-03-22 22:00:00 6.7 0 Calma 8 Norte 0 -- -- 91
2020-03-22 21:00:00 7.3 4 Norte 9 Norte 0.2 -- -- 82
2020-03-22 20:00:00 7.9 3 Norte 9 Nordeste 0.2 -- -- 81
2020-03-22 19:00:00 8.5 0 Calma 10 Nordeste 0 -- -- 80
2020-03-22 18:00:00 9.4 4 Nordeste 10 Oeste 0 -- -- 68
2020-03-22 17:00:00 10.3 8 Oeste 30 Sudoeste 0 -- -- 61
2020-03-22 16:00:00 11.5 17 Sudoeste 32 Sudoeste 0 -- -- 58
2020-03-22 15:00:00 14.1 18 Sudoeste 32 Sudoeste 0 -- -- 50
2020-03-22 14:00:00 13.1 19 Sudoeste 30 Oeste 0 -- -- 54
2020-03-22 13:00:00 12.3 21 Sudoeste 31 Sudoeste 0 -- -- 56
2020-03-22 12:00:00 11.9 17 Sudoeste 27 Sudoeste 0 -- -- 55
2020-03-22 11:00:00 11.7 13 Sudoeste 20 Oeste 0 -- -- 54
2020-03-22 10:00:00 9.1 9 Sudoeste 14 Sudoeste 0 -- -- 63
2020-03-22 09:00:00 5.8 2 Este 4 Sudeste 0 -- -- 75
2020-03-22 08:00:00 2.6 0 Calma 4 Sudeste 0 -- -- 90
2020-03-22 07:00:00 3.4 0 Calma 5 Sudeste 0 -- -- 89
2020-03-22 06:00:00 4.5 0 Calma 4 Sudoeste 0 -- -- 89
2020-03-22 05:00:00 4.7 0 Calma 4 Sudeste 0 -- -- 88
2020-03-22 04:00:00 4.4 0 Calma 3 Sudeste 0 -- -- 89
2020-03-22 03:00:00 3.9 0 Calma 2 Norte 0 -- -- 89
2020-03-22 02:00:00 3.2 0 Calma 2 Sudeste 0 -- -- 91
2020-03-22 01:00:00 3.8 0 Calma 3 Este 0 -- -- 85
2020-03-22 00:00:00 5.8 0 Calma 3 Este 0 -- -- 80
2020-03-21 23:00:00 7.3 0 Calma 4 Oeste 0 -- -- 79
2020-03-21 22:00:00 7.1 0 Calma 5 Este 0 -- -- 77
2020-03-21 21:00:00 7.1 3 Sudeste 10 Oeste 0 -- -- 73
2020-03-21 20:00:00 9.2 5 Oeste 22 Sudoeste 0 -- -- 63
2020-03-21 19:00:00 10.9 12 Oeste 23 Sudoeste 0 -- -- 54
2020-03-21 18:00:00 12.8 10 Sudoeste 23 Sudoeste 0 -- -- 46
2020-03-21 17:00:00 14.7 16 Sudoeste 28 Sudoeste 0 -- -- 40
2020-03-21 16:00:00 15.1 20 Sudoeste 32 Sudoeste 0 -- -- 42
2020-03-21 15:00:00 15.4 16 Sudoeste 30 Sudoeste 0 -- -- 44
2020-03-21 14:00:00 14.9 17 Sudoeste 28 Oeste 0 -- -- 45
2020-03-21 13:00:00 13.3 17 Sudoeste 29 Oeste 0 -- -- 49
2020-03-21 12:00:00 11.8 16 Sudoeste 25 Sudoeste 0 -- -- 52
2020-03-21 11:00:00 9.7 6 Sudoeste 14 Oeste 0 -- -- 62
2020-03-21 10:00:00 6.4 4 Sudeste 7 Este 0 -- -- 63
2020-03-21 09:00:00 1.8 2 Este 4 Nordeste 0 -- -- 91
2020-03-21 08:00:00 -1.8 0 Calma 3 Sudeste 0 -- -- 97
2020-03-21 07:00:00 -1.8 0 Calma 3 Este 0 -- -- 96
2020-03-21 06:00:00 -1.2 0 Calma 4 Este 0 -- -- 96
2020-03-21 05:00:00 -0.8 0 Calma 3 Sur 0 -- -- 94
2020-03-21 04:00:00 -0.3 0 Calma 3 Este 0 -- -- 94
2020-03-21 03:00:00 0.7 0 Calma 3 Noroeste 0 -- -- 94
2020-03-21 02:00:00 1.2 0 Calma 2 Este 0 -- -- 92
2020-03-21 01:00:00 1.8 0 Calma 3 Noroeste 0 -- -- 91
2020-03-21 00:00:00 2.6 0 Calma 3 Sur 0 -- -- 89
2020-03-20 23:00:00 3.5 0 Calma 3 Norte 0 -- -- 86
2020-03-20 22:00:00 4.8 0 Calma 3 Este 0 -- -- 81
2020-03-20 21:00:00 6.5 0 Calma 5 Oeste 0 -- -- 73
2020-03-20 20:00:00 9.3 4 Oeste 25 Oeste 0 -- -- 61
2020-03-20 19:00:00 11.2 13 Oeste 22 Oeste 0 -- -- 52
2020-03-20 18:00:00 13 13 Sudoeste 26 Sudoeste 0 -- -- 46
2020-03-20 17:00:00 14.9 13 Sudoeste 24 Sudoeste 0 -- -- 45
2020-03-20 16:00:00 15.5 17 Sudoeste 26 Sudoeste 0 -- -- 43
2020-03-20 15:00:00 16 17 Sudoeste 30 Sudoeste 0 -- -- 42
2020-03-20 14:00:00 15.5 16 Sudoeste 26 Oeste 0 -- -- 41
2020-03-20 13:00:00 14.4 17 Sudoeste 29 Oeste 0 -- -- 47
2020-03-20 12:00:00 12.7 15 Sudoeste 23 Sudoeste 0 -- -- 56
2020-03-20 11:00:00 11.1 13 Sudoeste 19 Sudoeste 0 -- -- 61
2020-03-20 10:00:00 8.6 4 Sudoeste 10 Oeste 0 -- -- 71
2020-03-20 09:00:00 4.5 2 Este 4 Sudeste 0 -- -- 92
2020-03-20 08:00:00 0.5 0 Calma 3 Este 0 -- -- 100
2020-03-20 07:00:00 -0.4 0 Calma 3 Sudeste 0 -- -- 98
2020-03-20 06:00:00 0 0 Calma 3 Sudeste 0 -- -- 98
2020-03-20 05:00:00 0.3 0 Calma 2 Noroeste 0 -- -- 97
2020-03-20 04:00:00 0.7 2 Este 3 Norte 0 -- -- 96
2020-03-20 03:00:00 1.4 0 Calma 2 Este 0 -- -- 95
2020-03-20 02:00:00 1.9 0 Calma 2 Noroeste 0 -- -- 94
2020-03-20 01:00:00 2.6 0 Calma 2 Este 0 -- -- 93
2020-03-20 00:00:00 3.3 0 Calma 2 Este 0 -- -- 90
2020-03-19 23:00:00 4.3 0 Calma 4 Sudeste 0 -- -- 88
2020-03-19 22:00:00 5.5 0 Calma 2 Este 0 -- -- 84
2020-03-19 21:00:00 6.8 0 Calma 5 Sur 0 -- -- 80
2020-03-19 20:00:00 8.5 0 Calma 4 Este 0 -- -- 73
2020-03-19 19:00:00 11 3 Sur 7 Sudoeste 0 -- -- 64
2020-03-19 18:00:00 13 4 Sudoeste 18 Sudoeste 0 -- -- 50
2020-03-19 17:00:00 14.9 13 Sudoeste 26 Sudoeste 0 -- -- 42
2020-03-19 16:00:00 16.1 16 Sudoeste 30 Sudoeste 0 -- -- 38
2020-03-19 15:00:00 18.1 16 Sudoeste 28 Sudoeste 0 -- -- 39
2020-03-19 14:00:00 17.8 14 Oeste 31 Sudoeste 0 -- -- 31
2020-03-19 13:00:00 17.9 14 Sudoeste 21 Sudoeste 0 -- -- 35
2020-03-19 12:00:00 15.8 12 Oeste 19 Sudoeste 0 -- -- 46
2020-03-19 11:00:00 12.8 8 Sudoeste 15 Sudoeste 0 -- -- 53
2020-03-19 10:00:00 9.3 2 Sudeste 7 Sur 0 -- -- 69
2020-03-19 09:00:00 4.4 0 Calma 4 Sur 0 -- -- 100
2020-03-19 08:00:00 1.3 4 Nordeste 6 Sudeste 0 -- -- 100
2020-03-19 07:00:00 1 0 Calma 3 Sudeste 0 -- -- 100
2020-03-19 06:00:00 1.6 2 Nordeste 4 Norte 0 -- -- 100
2020-03-19 05:00:00 2 0 Calma 3 Este 0 -- -- 99
2020-03-19 04:00:00 2.6 2 Nordeste 4 Norte 0 -- -- 99
2020-03-19 03:00:00 3.1 0 Calma 2 Sudeste 0 -- -- 99
2020-03-19 02:00:00 3.5 0 Calma 2 Este 0 -- -- 98
2020-03-19 01:00:00 4.2 0 Calma 4 Nordeste 0 -- -- 97
2020-03-19 00:00:00 5 0 Calma 2 Sudeste 0 -- -- 95
2020-03-18 23:00:00 6 0 Calma 4 Norte 0 -- -- 93
2020-03-18 22:00:00 7.3 0 Calma 2 Noroeste 0 -- -- 91
2020-03-18 21:00:00 8.9 0 Calma 6 Sudoeste 0 -- -- 89
2020-03-18 20:00:00 10.4 0 Calma 6 Oeste 0 -- -- 82
2020-03-18 19:00:00 11.4 8 Oeste 21 Oeste 0 -- -- 75
2020-03-18 18:00:00 12.6 13 Oeste 25 Oeste 0 -- -- 72
2020-03-18 17:00:00 13.7 15 Oeste 30 Oeste 0 -- -- 68
2020-03-18 16:00:00 15.1 14 Oeste 27 Sudoeste 0 -- -- 63
2020-03-18 15:00:00 15.8 16 Oeste 26 Sudoeste 0 -- -- 59
2020-03-18 14:00:00 14.9 15 Oeste 23 Sudoeste 0 -- -- 59
2020-03-18 13:00:00 13.6 13 Oeste 24 Sudoeste 0 -- -- 66
2020-03-18 12:00:00 11.6 6 Sudoeste 10 Sudoeste 0 -- -- 78
2020-03-18 11:00:00 8.8 3 Sudoeste 11 Sudoeste 0 -- -- 88
2020-03-18 10:00:00 6.4 0 Calma 4 Sudeste 0 -- -- 100
2020-03-18 09:00:00 4.1 0 Calma 4 Este 0 -- -- 100
2020-03-18 08:00:00 2.4 0 Calma 2 Sudeste 0 -- -- 100
2020-03-18 07:00:00 2.5 0 Calma 2 Nordeste 0 -- -- 100
2020-03-18 06:00:00 2.7 0 Calma 4 Sudeste 0 -- -- 100
2020-03-18 05:00:00 3 0 Calma 3 Sudeste 0 -- -- 100
2020-03-18 04:00:00 3.2 2 Este 4 Este 0 -- -- 100
2020-03-18 03:00:00 3.3 0 Calma 2 Norte 0 -- -- 100
2020-03-18 02:00:00 3.6 0 Calma 3 Sudeste 0 -- -- 100
2020-03-18 01:00:00 3.9 0 Calma 3 Sudeste 0 -- -- 100
2020-03-18 00:00:00 4.4 0 Calma 2 Este 0 -- -- 99
2020-03-17 23:00:00 4.9 0 Calma 3 Este 0 -- -- 98
2020-03-17 22:00:00 5.7 0 Calma 5 Sudeste 0 -- -- 97
2020-03-17 21:00:00 6.7 0 Calma 4 Este 0 -- -- 94
2020-03-17 20:00:00 8.3 0 Calma 2 Sudeste 0 -- -- 92
2020-03-17 19:00:00 10.2 0 Calma 4 Norte 0 -- -- 91
2020-03-17 18:00:00 10.9 0 Calma 3 Nordeste 0 -- -- 86
2020-03-17 17:00:00 10.9 0 Calma 5 Sudoeste 0 -- -- 86
2020-03-17 16:00:00 10.4 0 Calma 11 Sudoeste 0.2 -- -- 90
2020-03-17 15:00:00 10.6 3 Sudoeste 6 Sudoeste 0.2 -- -- 87
2020-03-17 14:00:00 10.7 0 Calma 4 Oeste 0 -- -- 83
2020-03-17 13:00:00 10.3 4 Sudoeste 9 Sudoeste 0 -- -- 83
2020-03-17 12:00:00 10.2 0 Calma 5 Sudeste 0 -- -- 84
2020-03-17 11:00:00 8.7 0 Calma 4 Norte 0 -- -- 91
2020-03-17 10:00:00 7.3 2 Sur 8 Sudeste 0 -- -- 100
2020-03-17 09:00:00 6.3 0 Calma 9 Sudoeste 0 -- -- 100
2020-03-17 08:00:00 5.7 0 Calma 8 Noroeste 0 -- -- 100
2020-03-17 07:00:00 5.4 2 Oeste 10 Sudeste 0 -- -- 100
2020-03-17 06:00:00 5.3 0 Calma 7 Sur 0 -- -- 100
2020-03-17 05:00:00 5.1 3 Sudeste 8 Oeste 0 -- -- 100
2020-03-17 04:00:00 5 0 Calma 6 Norte 0 -- -- 100
2020-03-17 03:00:00 4.9 2 Nordeste 6 Norte 0 -- -- 100
2020-03-17 02:00:00 5 3 Este 8 Norte 0 -- -- 100
2020-03-17 01:00:00 5 3 Sudoeste 6 Oeste 0 -- -- 100
2020-03-17 00:00:00 5.2 0 Calma 6 Sudeste 0 -- -- 99
2020-03-16 23:00:00 5.3 3 Nordeste 8 Norte 1.2 -- -- 99
2020-03-16 22:00:00 5.3 2 Sudoeste 6 Sudeste 2.8 -- -- 100
2020-03-16 21:00:00 5.2 2 Sudoeste 5 Este 2.2 -- -- 99
2020-03-16 20:00:00 5 0 Calma 7 Norte 1.6 -- -- 98
2020-03-16 19:00:00 5 4 Sudoeste 8 Oeste 0.2 -- -- 97
2020-03-16 18:00:00 4.8 0 Calma 6 Este 1.2 -- -- 96
2020-03-16 17:00:00 4.6 3 Noroeste 9 Norte 0.8 -- -- 95
2020-03-16 16:00:00 4.3 4 Sudeste 9 Norte 0 -- -- 96
2020-03-16 15:00:00 3.5 0 Calma 8 Este 0.8 -- -- 95
2020-03-16 14:00:00 2.7 3 Sudoeste 8 Sudeste 3.8 -- -- 95
2020-03-16 13:00:00 3.1 4 Este 8 Norte 3.2 -- -- 90
2020-03-16 12:00:00 4.2 2 Este 11 Este 5.2 -- -- 90
2020-03-16 11:00:00 5.2 2 Sudoeste 9 Sudoeste 3.6 -- -- 97
2020-03-16 10:00:00 5.1 12 Sudoeste 23 Oeste 1 -- -- 94
2020-03-16 09:00:00 4.8 2 Nordeste 7 Este 1.2 -- -- 95
2020-03-16 08:00:00 4.6 3 Sur 6 Este 2.6 -- -- 97
2020-03-16 07:00:00 4.7 3 Sudeste 9 Nordeste 2.4 -- -- 95
2020-03-16 06:00:00 5 2 Sudoeste 3 Sudeste 2.6 -- -- 97
2020-03-16 05:00:00 5 0 Calma 6 Sudeste 1.8 -- -- 95
2020-03-16 04:00:00 5.2 3 Norte 9 Norte 1.8 -- -- 92
2020-03-16 03:00:00 5.8 2 Sudeste 7 Nordeste 1.8 -- -- 93
2020-03-16 02:00:00 6.2 4 Oeste 21 Oeste 2.8 -- -- 89
2020-03-16 01:00:00 7.1 15 Oeste 33 Sudoeste 2 -- -- 85
2020-03-16 00:00:00 7.9 16 Oeste 32 Oeste 1.2 -- -- 83
2020-03-15 23:00:00 8 4 Nordeste 9 Norte 2.6 -- -- 94
2020-03-15 22:00:00 8.2 4 Sur 10 Sudeste 2.2 -- -- 94
2020-03-15 21:00:00 8.7 0 Calma 10 Norte 1.2 -- -- 92
2020-03-15 20:00:00 9.5 4 Sudoeste 22 Oeste 6 -- -- 86
2020-03-15 19:00:00 12.3 13 Oeste 24 Sudoeste 0 -- -- 66
2020-03-15 18:00:00 13.4 13 Sudoeste 27 Sudoeste 0 -- -- 58
2020-03-15 17:00:00 14.5 10 Sudoeste 24 Sudoeste 0 -- -- 51
2020-03-15 16:00:00 15 12 Oeste 23 Sudoeste 0 -- -- 39
2020-03-15 15:00:00 16.8 8 Sudoeste 26 Sudoeste 0 -- -- 36
2020-03-15 14:00:00 16.5 13 Sudoeste 25 Sudoeste 0 -- -- 37
2020-03-15 13:00:00 17.4 13 Sudoeste 23 Sudoeste 0 -- -- 35
2020-03-15 12:00:00 15.1 13 Oeste 23 Sudoeste 0 -- -- 48
2020-03-15 11:00:00 12.8 11 Sudoeste 21 Sudoeste 0 -- -- 55
2020-03-15 10:00:00 9.7 4 Este 8 Este 0 -- -- 63
2020-03-15 09:00:00 5.6 0 Calma 5 Sudeste 0 -- -- 80
2020-03-15 08:00:00 2.1 0 Calma 4 Sudeste 0 -- -- 93
2020-03-15 07:00:00 3.1 0 Calma 4 Este 0 -- -- 89
2020-03-15 06:00:00 4.9 0 Calma 5 Sudeste 0 -- -- 83
2020-03-15 05:00:00 6.5 0 Calma 4 Norte 0 -- -- 80
2020-03-15 04:00:00 6.2 0 Calma 6 Nordeste 0 -- -- 81
2020-03-15 03:00:00 5.8 0 Calma 3 Sudeste 0 -- -- 84
2020-03-15 02:00:00 5.7 0 Calma 9 Nordeste 0 -- -- 83
2020-03-15 01:00:00 5.5 0 Calma 2 Sudoeste 0 -- -- 89
2020-03-15 00:00:00 5.6 0 Calma 2 Norte 0 -- -- 88
2020-03-14 23:00:00 6.7 0 Calma 3 Oeste 0 -- -- 85
2020-03-14 22:00:00 8.5 0 Calma 11 Nordeste 0 -- -- 78
2020-03-14 21:00:00 9.2 0 Calma 6 Sudeste 0 -- -- 81
2020-03-14 20:00:00 11.1 4 Sur 16 Oeste 0 -- -- 74
2020-03-14 19:00:00 12.3 11 Oeste 23 Oeste 0 -- -- 71
2020-03-14 18:00:00 13.4 12 Sudoeste 26 Sudoeste 0 -- -- 67
2020-03-14 17:00:00 14.4 15 Sudoeste 25 Sudoeste 0 -- -- 62
2020-03-14 16:00:00 15.1 14 Sudoeste 27 Sudoeste 0 -- -- 59
2020-03-14 15:00:00 17.3 15 Sudoeste 33 Sudoeste 0 -- -- 52
2020-03-14 14:00:00 17.8 19 Sudoeste 33 Sudoeste 0 -- -- 48
2020-03-14 13:00:00 17.3 15 Sudoeste 24 Sudoeste 0 -- -- 44
2020-03-14 12:00:00 15.3 14 Sudoeste 23 Oeste 0 -- -- 56
2020-03-14 11:00:00 13.1 6 Sudoeste 17 Sudoeste 0 -- -- 63
2020-03-14 10:00:00 9.2 4 Este 8 Este 0 -- -- 65
2020-03-14 09:00:00 5.8 3 Sudeste 5 Sur 0 -- -- 82
2020-03-14 08:00:00 2.6 2 Noroeste 6 Sudeste 0 -- -- 93
2020-03-14 07:00:00 3.6 0 Calma 4 Noroeste 0 -- -- 89
2020-03-14 06:00:00 5.7 2 Sudoeste 10 Nordeste 0 -- -- 83
2020-03-14 05:00:00 6.9 5 Nordeste 10 Nordeste 0 -- -- 80
2020-03-14 04:00:00 7.6 2 Sur 9 Nordeste 0 -- -- 81
2020-03-14 03:00:00 8.1 0 Calma 10 Nordeste 0 -- -- 85
2020-03-14 02:00:00 8.3 3 Nordeste 10 Nordeste 0 -- -- 83
2020-03-14 01:00:00 8.9 3 Este 6 Nordeste 0 -- -- 88
2020-03-14 00:00:00 9.4 2 Sudeste 8 Sudoeste 0 -- -- 88
2020-03-13 23:00:00 10.2 7 Sudoeste 10 Oeste 0 -- -- 89
2020-03-13 22:00:00 10.5 6 Sudoeste 14 Sudoeste 0 -- -- 87
2020-03-13 21:00:00 11 9 Sudoeste 16 Sudoeste 0 -- -- 85
2020-03-13 20:00:00 11.3 9 Sudoeste 16 Oeste 0 -- -- 82
2020-03-13 19:00:00 11.7 12 Oeste 24 Oeste 0 -- -- 79
2020-03-13 18:00:00 12.6 14 Oeste 25 Sudoeste 0 -- -- 77
2020-03-13 17:00:00 13.5 15 Oeste 25 Oeste 0 -- -- 73
2020-03-13 16:00:00 13.9 15 Oeste 25 Oeste 0 -- -- 73
2020-03-13 15:00:00 13.7 14 Oeste 28 Sudoeste 0 -- -- 73
2020-03-13 14:00:00 14.3 20 Sudoeste 37 Sudoeste 0 -- -- 72
2020-03-13 13:00:00 16 19 Oeste 30 Sudoeste 0 -- -- 68
2020-03-13 12:00:00 15.5 18 Oeste 26 Sudoeste 0 -- -- 68
2020-03-13 11:00:00 12.4 4 Sudeste 10 Nordeste 0.2 -- -- 86
2020-03-13 10:00:00 11 4 Nordeste 21 Oeste 0 -- -- 88
2020-03-13 09:00:00 9.8 12 Sudoeste 22 Sudoeste 0 -- -- 98
2020-03-13 08:00:00 8.4 2 Sur 13 Noroeste 0.6 -- -- 98
2020-03-13 07:00:00 7.9 0 Calma 6 Sudeste 0 -- -- 96
2020-03-13 06:00:00 8.7 3 Nordeste 10 Sudeste 0 -- -- 96
2020-03-13 05:00:00 8.7 2 Sudoeste 8 Noroeste 0 -- -- 95
2020-03-13 04:00:00 9.1 3 Norte 6 Sur 0 -- -- 94
2020-03-13 03:00:00 10.1 2 Sudoeste -- -- -- -- -- 89
2020-03-13 02:00:00 10.6 5 Norte 12 Nordeste 0.6 -- -- 90
2020-03-13 01:00:00 11.2 0 Calma 10 Este 0.2 -- -- 86
2020-03-13 00:00:00 12.4 0 Calma 19 Oeste 0 -- -- 73
2020-03-12 23:00:00 11.4 3 Sudoeste 12 Sudoeste 0 -- -- 74
2020-03-12 22:00:00 11.9 0 Calma 7 Este 0 -- -- 67
2020-03-12 21:00:00 12.3 2 Sur 5 Sudeste 0 -- -- 65
2020-03-12 20:00:00 14.2 0 Calma 14 Norte 0 -- -- 59
2020-03-12 19:00:00 17.1 0 Calma 15 Sudoeste 0 -- -- 50
2020-03-12 18:00:00 19.9 10 Oeste 20 Sudoeste 0 -- -- 37
2020-03-12 17:00:00 21.4 10 Sudoeste 22 Sudoeste 0 -- -- 35
2020-03-12 16:00:00 22.5 16 Sudoeste 31 Sudoeste 0 -- -- 34
2020-03-12 15:00:00 23.4 17 Sudoeste 31 Sudoeste 0 -- -- 29
2020-03-12 14:00:00 23.4 13 Oeste 27 Sudoeste 0 -- -- 31
2020-03-12 13:00:00 23.5 13 Sudoeste 26 Sudoeste 0 -- -- 30
2020-03-12 12:00:00 21.8 15 Sudoeste 24 Sudoeste 0 -- -- 33
2020-03-12 11:00:00 17.9 14 Sudoeste 25 Sudoeste 0 -- -- 43
2020-03-12 10:00:00 14.7 3 Sudeste 5 Sudeste 0 -- -- 56
2020-03-12 09:00:00 8.3 2 Sur 5 Sudeste 0 -- -- 79
2020-03-12 08:00:00 3.9 0 Calma 8 Sudeste 0 -- -- 89
2020-03-12 07:00:00 3.6 2 Nordeste 5 Sudeste 0 -- -- 86
2020-03-12 06:00:00 4.4 0 Calma 5 Sudeste 0 -- -- 84
2020-03-12 05:00:00 5.2 2 Este 6 Sudeste 0 -- -- 84
2020-03-12 04:00:00 5.3 2 Este 4 Nordeste 0 -- -- 85
2020-03-12 03:00:00 5.9 0 Calma 4 Este 0 -- -- 84
2020-03-12 02:00:00 6.5 0 Calma 6 Noroeste 0 -- -- 82
2020-03-12 01:00:00 6.8 0 Calma 4 Sudeste 0 -- -- 81
2020-03-12 00:00:00 7.3 0 Calma 4 Sudeste 0 -- -- 79
2020-03-11 23:00:00 7.8 0 Calma 3 Norte 0 -- -- 77
2020-03-11 22:00:00 8.4 0 Calma 4 Norte 0 -- -- 72
2020-03-11 21:00:00 9.6 0 Calma 3 Sudeste 0 -- -- 66
2020-03-11 20:00:00 11.8 2 Sudeste 4 Este 0 -- -- 58
2020-03-11 19:00:00 15.9 0 Calma 18 Oeste 0 -- -- 47
2020-03-11 18:00:00 19.3 7 Oeste 24 Sudoeste 0 -- -- 34
2020-03-11 17:00:00 22.2 17 Sudoeste 28 Oeste 0 -- -- 30
2020-03-11 16:00:00 23.4 15 Sudoeste 25 Sudoeste 0 -- -- 29
2020-03-11 15:00:00 24.1 15 Sudoeste 24 Sudoeste 0 -- -- 25
2020-03-11 14:00:00 23.7 14 Sudoeste 24 Sudoeste 0 -- -- 23
2020-03-11 13:00:00 22.7 14 Sudoeste 21 Sudoeste 0 -- -- 24
2020-03-11 12:00:00 20.6 5 Sudoeste 10 Oeste 0 -- -- 27
2020-03-11 11:00:00 16.9 2 Sudeste 8 Sudeste 0 -- -- 31
2020-03-11 10:00:00 11.5 2 Este 5 Sudeste 0 -- -- 54
2020-03-11 09:00:00 5.2 2 Sudeste 5 Sudeste 0 -- -- 78
2020-03-11 08:00:00 1.1 0 Calma 6 Este 0 -- -- 87
2020-03-11 07:00:00 1.1 2 Norte 5 Sudeste 0 -- -- 87
2020-03-11 06:00:00 1.4 2 Este 8 Sudeste 0 -- -- 83
2020-03-11 05:00:00 2.4 0 Calma 11 Sudeste 0 -- -- 80
2020-03-11 04:00:00 2.8 3 Sudoeste 12 Sudeste 0 -- -- 79
2020-03-11 03:00:00 3.5 2 Este 10 Sudoeste 0 -- -- 76
2020-03-11 02:00:00 3.8 3 Este 11 Sudeste 0 -- -- 76
2020-03-11 01:00:00 4.1 3 Nordeste 8 Sudeste 0 -- -- 77
2020-03-11 00:00:00 5.1 3 Nordeste 9 Sur 0 -- -- 76
2020-03-10 23:00:00 6 2 Sudeste 5 Este 0 -- -- 78
2020-03-10 22:00:00 7.5 0 Calma 7 Sudeste 0 -- -- 76
2020-03-10 21:00:00 8.9 2 Nordeste 6 Sudeste 0 -- -- 72
2020-03-10 20:00:00 11.3 0 Calma 6 Sur 0 -- -- 64
2020-03-10 19:00:00 14.6 2 Sudoeste 13 Oeste 0 -- -- 53
2020-03-10 18:00:00 18.3 0 Calma 19 Sudoeste 0 -- -- 41
2020-03-10 17:00:00 20.2 4 Este 32 Este 0 -- -- 36
2020-03-10 16:00:00 19.9 15 Nordeste 32 Este 0 -- -- 36
2020-03-10 15:00:00 19.5 17 Nordeste 31 Este 0 -- -- 38
2020-03-10 14:00:00 19.5 15 Nordeste 30 Sudeste 0 -- -- 36
2020-03-10 13:00:00 19.4 14 Este 37 Nordeste 0 -- -- 37
2020-03-10 12:00:00 17.9 13 Este 25 Este 0 -- -- 38
2020-03-10 11:00:00 12.6 15 Sudoeste 27 Sudoeste 0 -- -- 47
2020-03-10 10:00:00 8.7 21 Sudoeste 46 Sudoeste 0 -- -- 53
2020-03-10 09:00:00 7.9 26 Oeste 46 Oeste 0 -- -- 52
2020-03-10 08:00:00 7.1 24 Oeste 48 Noroeste 0 -- -- 52
2020-03-10 07:00:00 7.6 24 Oeste 54 Oeste 0 -- -- 52
2020-03-10 06:00:00 8.1 22 Oeste 48 Oeste 0 -- -- 55
2020-03-10 05:00:00 9.5 22 Oeste 44 Sudoeste 0 -- -- 55
2020-03-10 04:00:00 9.1 15 Sudoeste 47 Este 0 -- -- 53
2020-03-10 03:00:00 10.3 21 Nordeste 53 Este 0 -- -- 60
2020-03-10 02:00:00 11.1 21 Nordeste 48 Este 0 -- -- 52
2020-03-10 01:00:00 9.7 17 Nordeste 36 Nordeste 0 -- -- 49
2020-03-10 00:00:00 7.9 15 Nordeste 39 Nordeste 0 -- -- 50
2020-03-09 23:00:00 6.7 13 Norte 48 Este 0 -- -- 47
2020-03-09 22:00:00 6.6 14 Nordeste 45 Nordeste 0 -- -- 50
2020-03-09 21:00:00 6.8 18 Nordeste 57 Este 0 -- -- 50
2020-03-09 20:00:00 6.7 10 Nordeste 46 Este 0 -- -- 47
2020-03-09 19:00:00 7 17 Nordeste 48 Nordeste 0 -- -- 46
2020-03-09 18:00:00 7.4 14 Este 39 Este 0 -- -- 47
2020-03-09 17:00:00 7.4 14 Este 37 Nordeste 0 -- -- 47
2020-03-09 16:00:00 8.8 10 Este 38 Oeste 0 -- -- 42
2020-03-09 15:00:00 10.3 9 Este 28 Nordeste 0 -- -- 33
2020-03-09 14:00:00 9.8 10 Oeste 36 Nordeste 0 -- -- 37
2020-03-09 13:00:00 10 20 Este 46 Nordeste 0 -- -- 34
2020-03-09 12:00:00 9.2 25 Este 54 Este 0 -- -- 32
2020-03-09 11:00:00 8.5 21 Este 54 Este 0 -- -- 42
2020-03-09 10:00:00 7.4 27 Este 69 Este 0 -- -- 46
2020-03-09 09:00:00 6.9 27 Este 52 Este 0 -- -- 45
2020-03-09 08:00:00 5.9 23 Este 42 Este 0 -- -- 46
2020-03-09 07:00:00 3.2 4 Oeste 18 Este 0 -- -- 60
2020-03-09 06:00:00 5 4 Norte 23 Nordeste 0 -- -- 53
2020-03-09 05:00:00 1.7 4 Sudoeste 12 Sur 0 -- -- 83
2020-03-09 04:00:00 0.6 2 Sudeste 6 Sudeste 0 -- -- 90
2020-03-09 03:00:00 0.9 2 Noroeste 10 Norte 0 -- -- 90
2020-03-09 02:00:00 0.4 4 Sudoeste 8 Sudeste 0 -- -- 91
2020-03-09 01:00:00 0.7 3 Oeste 9 Este 0 -- -- 92
2020-03-09 00:00:00 1.2 0 Calma 8 Sudeste 0 -- -- 90
2020-03-08 23:00:00 2.2 2 Norte 5 Sudeste 0 -- -- 87
2020-03-08 22:00:00 3.5 0 Calma 5 Norte 0 -- -- 83
2020-03-08 21:00:00 4.9 0 Calma 3 Sudeste 0 -- -- 77
2020-03-08 20:00:00 7.4 2 Este 5 Sur 0 -- -- 69
2020-03-08 19:00:00 10.9 2 Sudeste 28 Sudoeste 0 -- -- 57
2020-03-08 18:00:00 12 13 Oeste 27 Sudoeste 0 -- -- 51
2020-03-08 17:00:00 13.7 13 Sudoeste 26 Sudoeste 0 -- -- 46
2020-03-08 16:00:00 15.8 15 Sudoeste 27 Sudoeste 0 -- -- 39
2020-03-08 15:00:00 15.8 14 Oeste 24 Sudoeste 0 -- -- 35
2020-03-08 14:00:00 16.2 13 Sudoeste 22 Oeste 0 -- -- 34
2020-03-08 13:00:00 14.6 17 Sudoeste 27 Oeste 0 -- -- 36
2020-03-08 12:00:00 13 5 Sudoeste 15 Sudoeste 0 -- -- 34
2020-03-08 11:00:00 9.3 3 Este 13 Sudoeste 0 -- -- 43
2020-03-08 10:00:00 5.5 3 Sudeste 7 Sudeste 0 -- -- 53
2020-03-08 09:00:00 0.4 2 Sudeste 4 Este 0 -- -- 83
2020-03-08 08:00:00 -2.1 3 Este 6 Norte 0 -- -- 90
2020-03-08 07:00:00 -1.7 2 Sur 5 Este 0 -- -- 88
2020-03-08 06:00:00 -1.2 0 Calma 5 Sur 0 -- -- 88
2020-03-08 05:00:00 -0.2 0 Calma 4 Sudoeste 0 -- -- 84
2020-03-08 04:00:00 1.7 0 Calma 8 Sudoeste 0 -- -- 79
2020-03-08 03:00:00 3 0 Calma 17 Nordeste 0 -- -- 75
2020-03-08 02:00:00 3.9 7 Nordeste 18 Nordeste 0 -- -- 65
2020-03-08 01:00:00 4 4 Oeste 14 Nordeste 0 -- -- 68
2020-03-08 00:00:00 3.9 7 Nordeste 19 Norte 0 -- -- 67
2020-03-07 23:00:00 5 9 Nordeste 28 Nordeste 0 -- -- 63
2020-03-07 22:00:00 7.5 9 Sudoeste 47 Oeste 0 -- -- 51
2020-03-07 21:00:00 7.6 10 Noroeste 36 Oeste 0 -- -- 52
2020-03-07 20:00:00 7.7 15 Noroeste 37 Oeste 0 -- -- 52
2020-03-07 19:00:00 7.9 11 Nordeste 31 Oeste 0 -- -- 52
2020-03-07 18:00:00 8.7 7 Nordeste 33 Norte 0 -- -- 49
2020-03-07 17:00:00 9.4 13 Este 36 Este 0 -- -- 47
2020-03-07 16:00:00 10.1 9 Este 30 Nordeste 0 -- -- 46
2020-03-07 15:00:00 9.3 14 Este 40 Este 0 -- -- 45
2020-03-07 14:00:00 9.3 14 Nordeste 49 Nordeste 0 -- -- 42
2020-03-07 13:00:00 7.5 26 Nordeste 61 Este 0 -- -- 33
2020-03-07 12:00:00 6.7 26 Nordeste 64 Este 0 -- -- 36
2020-03-07 11:00:00 6.4 22 Nordeste 52 Norte 0 -- -- 44
2020-03-07 10:00:00 4.9 22 Nordeste 54 Este 1.8 -- -- 50
2020-03-07 09:00:00 2.3 13 Nordeste 32 Norte 0 -- -- 71
2020-03-07 08:00:00 -0.2 4 Nordeste 13 Este 0 -- -- 89
2020-03-07 07:00:00 -0.4 4 Nordeste 13 Norte 0 -- -- 88
2020-03-07 06:00:00 -0.5 2 Noroeste 10 Sudeste 0 -- -- 91
2020-03-07 05:00:00 -0.9 3 Sur 11 Norte 0 -- -- 95
2020-03-07 04:00:00 -1.1 3 Este 14 Norte 0.2 -- -- 96
2020-03-07 03:00:00 -1.3 4 Nordeste 9 Este 0.6 -- -- 96
2020-03-07 02:00:00 -1.2 7 Sudoeste 23 Noroeste 0.6 -- -- 94
2020-03-07 01:00:00 -1.2 9 Sudoeste 14 Sudoeste 1.4 -- -- 95
2020-03-07 00:00:00 -0.7 3 Sudoeste 15 Oeste 0.4 -- -- 91
2020-03-06 23:00:00 -0.9 10 Sudoeste 28 Sudoeste 0.6 -- -- 93
2020-03-06 22:00:00 -1 9 Oeste 20 Sudoeste 0.6 -- -- 93
2020-03-06 21:00:00 -0.8 8 Oeste 19 Oeste 0.4 -- -- 93
2020-03-06 20:00:00 -0.8 2 Norte 17 Este 2.2 -- -- 93
2020-03-06 19:00:00 0.4 6 Este 17 Sudoeste 0 -- -- 78
2020-03-06 18:00:00 0.9 7 Nordeste 28 Este 0 -- -- 78
2020-03-06 17:00:00 3.6 7 Este 32 Este 0 -- -- 52
2020-03-06 16:00:00 4.8 18 Nordeste 32 Nordeste 0 -- -- 51
2020-03-06 15:00:00 4 14 Nordeste 39 Nordeste 0 -- -- 66
2020-03-06 14:00:00 7.6 8 Este 26 Nordeste 0 -- -- 40
2020-03-06 13:00:00 6.1 14 Nordeste 26 Norte 0 -- -- 58
2020-03-06 12:00:00 5.7 9 Nordeste 29 Nordeste 0 -- -- 64
2020-03-06 11:00:00 5.3 7 Este 17 Este 0 -- -- 55
2020-03-06 10:00:00 2.2 2 Sur 12 Sudoeste 0 -- -- 68
2020-03-06 09:00:00 -1.6 2 Sur 9 Sudoeste 0 -- -- 89
2020-03-06 08:00:00 -2.5 0 Calma 6 Sudeste 0 -- -- 89
2020-03-06 07:00:00 -2.4 4 Nordeste 14 Sudoeste 0 -- -- 87
2020-03-06 06:00:00 -2.8 4 Norte 13 Sudoeste 0 -- -- 92
2020-03-06 05:00:00 -2.4 2 Sudeste 5 Sudeste 0 -- -- 90
2020-03-06 04:00:00 -2 5 Norte 9 Este 0 -- -- 88
2020-03-06 03:00:00 -1.4 3 Sudeste 7 Nordeste -- -- -- 85
2020-03-06 02:00:00 -0.6 0 Calma 7 Oeste 0 -- -- 81
2020-03-06 01:00:00 1.2 2 Oeste 10 Nordeste 0 -- -- 70
2020-03-06 00:00:00 4.1 5 Norte 35 Este 0 -- -- 44
2020-03-05 23:00:00 5.4 17 Este 33 Nordeste 0 -- -- 36
2020-03-05 22:00:00 5.1 5 Nordeste 22 Nordeste 0 -- -- 48
2020-03-05 21:00:00 5.6 8 Nordeste 28 Este 0 -- -- 56
2020-03-05 20:00:00 5.8 8 Nordeste 22 Nordeste 0 -- -- 61
2020-03-05 19:00:00 7 5 Norte 19 Nordeste 0 -- -- 55
2020-03-05 18:00:00 7.5 5 Norte 12 Nordeste 0 -- -- 62
2020-03-05 17:00:00 8.8 6 Norte 53 Nordeste 0.4 -- -- 64
2020-03-05 16:00:00 11.3 10 Sur 35 Sudoeste 0 -- -- 70
2020-03-05 15:00:00 8.8 11 Sudoeste 33 Sudoeste 3.4 -- -- 92
2020-03-05 14:00:00 8.7 14 Oeste 26 Oeste 2 -- -- 90
2020-03-05 13:00:00 8.6 10 Oeste 24 Sudoeste 2.4 -- -- 94
2020-03-05 12:00:00 8.7 4 Sudoeste 11 Sudoeste 0.6 -- -- 93
2020-03-05 11:00:00 7.5 2 Oeste 5 Nordeste 0.4 -- -- 91
2020-03-05 10:00:00 6.6 2 Sudoeste 6 Sudoeste 0 -- -- 90
2020-03-05 09:00:00 4.8 0 Calma 8 Sur 0 -- -- 100
2020-03-05 08:00:00 3.1 4 Sur 7 Oeste 0 -- -- 100
2020-03-05 07:00:00 3 0 Calma 14 Este 0 -- -- 99
2020-03-05 06:00:00 2.8 0 Calma 5 Sudeste 0 -- -- 97
2020-03-05 05:00:00 3.5 2 Nordeste 7 Sur 0 -- -- 96
2020-03-05 04:00:00 3.7 3 Nordeste 5 Norte 0 -- -- 96
2020-03-05 03:00:00 4.4 3 Oeste 6 Sudeste 0 -- -- 94
2020-03-05 02:00:00 5.1 0 Calma 6 Sudoeste 0 -- -- 92
2020-03-05 01:00:00 4.9 2 Norte 6 Sudeste 0 -- -- 94
2020-03-05 00:00:00 5.1 0 Calma 4 Sudeste 0 -- -- 92
2020-03-04 23:00:00 5.1 2 Sudeste 4 Sudeste 0 -- -- 91
2020-03-04 22:00:00 5.6 0 Calma 4 Sur 0 -- -- 89
2020-03-04 21:00:00 6.9 0 Calma 5 Sudeste 0 -- -- 84
2020-03-04 20:00:00 8.8 0 Calma 8 Este 0 -- -- 76
2020-03-04 19:00:00 12 2 Sur 18 Oeste 0 -- -- 67
2020-03-04 18:00:00 14.5 4 Noroeste 14 Noroeste 0 -- -- 59
2020-03-04 17:00:00 16.1 6 Este 28 Nordeste 0 -- -- 48
2020-03-04 16:00:00 16.6 9 Este 22 Nordeste 0 -- -- 46
2020-03-04 15:00:00 16.3 8 Oeste 16 Norte 0 -- -- 46
2020-03-04 14:00:00 15.4 4 Sudoeste 14 Sudoeste 0 -- -- 51
2020-03-04 13:00:00 14.3 8 Sudoeste 16 Sudoeste 0 -- -- 55
2020-03-04 12:00:00 9.5 3 Sudeste 6 Este 0.2 -- -- 67
2020-03-04 11:00:00 7.1 2 Nordeste 7 Este 0 -- -- 70
2020-03-04 10:00:00 4.6 0 Calma 11 Este 0 -- -- 70
2020-03-04 09:00:00 2.1 0 Calma 11 Nordeste 0 -- -- 75
2020-03-04 08:00:00 0.5 4 Nordeste 9 Sur 0 -- -- 76
2020-03-04 07:00:00 0 3 Oeste 9 Sur 0 -- -- 79
2020-03-04 06:00:00 0.5 3 Noroeste 9 Sur 0 -- -- 74
2020-03-04 05:00:00 1.8 4 Sudoeste 30 Oeste 0 -- -- 66
2020-03-04 04:00:00 1.9 8 Sudoeste 18 Sudoeste 0 -- -- 63
2020-03-04 03:00:00 3.8 4 Sudoeste 21 Norte 0 -- -- 56
2020-03-04 02:00:00 6.4 7 Nordeste 35 Este 0 -- -- 39
2020-03-04 01:00:00 6.2 9 Nordeste 31 Este 0 -- -- 41
2020-03-04 00:00:00 6.1 14 Nordeste 64 Este 0 -- -- 44
2020-03-03 23:00:00 5.4 12 Nordeste 27 Nordeste 0 -- -- 55
2020-03-03 22:00:00 4.5 4 Oeste 18 Oeste 0 -- -- 72
2020-03-03 21:00:00 4.7 7 Nordeste 27 Sudeste 0.4 -- -- 74
2020-03-03 20:00:00 5.8 15 Sur 60 Sur 0.2 -- -- 69
2020-03-03 19:00:00 6.9 8 Este 33 Nordeste 0 -- -- 59
2020-03-03 18:00:00 7.1 4 Nordeste 16 Oeste 0 -- -- 70
2020-03-03 17:00:00 7.5 8 Oeste 20 Sudoeste 0 -- -- 67
2020-03-03 16:00:00 7.1 11 Sudoeste 18 Sudoeste 0 -- -- 67
2020-03-03 15:00:00 6.1 8 Sudoeste 19 Oeste 0 -- -- 71
2020-03-03 14:00:00 6.2 8 Sudoeste 13 Sudoeste 0 -- -- 75
2020-03-03 13:00:00 2.6 2 Este 11 Sudoeste 0.2 -- -- 86
2020-03-03 12:00:00 1.3 2 Sur 9 Este 0.4 -- -- 86
2020-03-03 11:00:00 0.9 4 Nordeste 9 Este 0 -- -- 82
2020-03-03 10:00:00 0.8 0 Calma 5 Sudoeste 0 -- -- 75
2020-03-03 09:00:00 -0.2 0 Calma 6 Norte 0 -- -- 81
2020-03-03 08:00:00 -1.2 0 Calma 5 Sur 0 -- -- 87
2020-03-03 07:00:00 -1.2 0 Calma 6 Sudoeste 0 -- -- 86
2020-03-03 06:00:00 -0.7 2 Sudoeste 16 Oeste 0 -- -- 79
2020-03-03 05:00:00 -0.9 5 Sudoeste 14 Sudoeste 0 -- -- 80
2020-03-03 04:00:00 -0.1 9 Sudoeste 25 Sudoeste 0 -- -- 75
2020-03-03 03:00:00 0.3 11 Oeste 23 Sudoeste 0 -- -- 73
2020-03-03 02:00:00 0.7 3 Sudoeste 6 Sudoeste 0 -- -- 81
2020-03-03 01:00:00 1 4 Este 11 Norte 0 -- -- 79
2020-03-03 00:00:00 1 4 Nordeste 10 Norte 0 -- -- 78
2020-03-02 23:00:00 1.1 5 Nordeste 12 Nordeste 0 -- -- 80
2020-03-02 22:00:00 1.8 2 Este 17 Oeste 0 -- -- 71
2020-03-02 21:00:00 2.6 3 Oeste 11 Oeste 0 -- -- 63
2020-03-02 20:00:00 3 6 Sudeste 18 Norte 0 -- -- 55
2020-03-02 19:00:00 3.7 6 Noroeste 21 Sudoeste 0 -- -- 49
2020-03-02 18:00:00 4.7 6 Sudeste 26 Nordeste 0 -- -- 51
2020-03-02 17:00:00 6.8 6 Nordeste 26 Oeste 0 -- -- 40
2020-03-02 16:00:00 7.1 14 Nordeste 43 Norte 0 -- -- 46
2020-03-02 15:00:00 8.5 10 Este 37 Este 0 -- -- 36
2020-03-02 14:00:00 8.1 12 Nordeste 36 Este 0 -- -- 42
2020-03-02 13:00:00 7.3 19 Este 48 Sudeste 0 -- -- 59
2020-03-02 12:00:00 6.5 4 Nordeste 30 Nordeste 0.2 -- -- 65
2020-03-02 11:00:00 6.4 5 Este 56 Oeste 0.2 -- -- 76
2020-03-02 10:00:00 6.7 5 Norte 29 Sur 0.6 -- -- 82
2020-03-02 09:00:00 7.7 5 Sudoeste 29 Sudoeste 0.2 -- -- 80
2020-03-02 08:00:00 6.2 17 Sur 37 Sudoeste 5.6 -- -- 100
2020-03-02 07:00:00 3.7 4 Oeste 10 Norte 3.8 -- -- 100
2020-03-02 06:00:00 3.5 2 Nordeste 5 Noroeste 7.2 -- -- 99
2020-03-02 05:00:00 3.4 0 Calma 6 Sur 6.2 -- -- 97
2020-03-02 04:00:00 3.8 3 Este 10 Este 7.4 -- -- 93
2020-03-02 03:00:00 5.2 3 Noroeste 17 Noroeste 6.6 -- -- 87
2020-03-02 02:00:00 4.9 3 Este 6 Sudeste 4 -- -- 97
2020-03-02 01:00:00 5.1 0 Calma 8 Sudeste 1.6 -- -- 95
2020-03-02 00:00:00 5.4 4 Norte 12 Sudoeste 2 -- -- 92
2020-03-01 23:00:00 5.3 4 Oeste 17 Oeste 2.2 -- -- 89
2020-03-01 22:00:00 5.7 2 Sudoeste 18 Oeste 1 -- -- 89
2020-03-01 21:00:00 7.1 8 Oeste 24 Oeste 1 -- -- 77
2020-03-01 20:00:00 8 4 Oeste 13 Sur 0 -- -- 60
2020-03-01 19:00:00 9.5 8 Sudoeste 27 Sudoeste 0 -- -- 48
2020-03-01 18:00:00 10.5 11 Sudoeste 39 Sur 0 -- -- 40
2020-03-01 17:00:00 11.9 18 Sudoeste 42 Sudoeste 0 -- -- 38
2020-03-01 16:00:00 11.4 18 Sudoeste 36 Sur 0 -- -- 42
2020-03-01 15:00:00 10.6 13 Sudoeste 34 Sudoeste 0 -- -- 52
2020-03-01 14:00:00 10.6 19 Sudoeste 34 Sudoeste 0 -- -- 56
2020-03-01 13:00:00 9.5 15 Sudoeste 30 Sudoeste 0 -- -- 62
2020-03-01 12:00:00 8.5 10 Sudoeste 25 Sudoeste 0 -- -- 69
2020-03-01 11:00:00 8 12 Sudoeste 22 Sudoeste 0 -- -- 71
2020-03-01 10:00:00 7.5 9 Sudoeste 19 Sudoeste 0 -- -- 73
2020-03-01 09:00:00 4.8 7 Sudoeste 15 Sudoeste 0 -- -- 86
2020-03-01 08:00:00 3.3 3 Oeste 7 Sudoeste 0 -- -- 96
2020-03-01 07:00:00 3.1 4 Sudoeste 8 Sudoeste 0 -- -- 94
2020-03-01 06:00:00 4.7 0 Calma 12 Sudoeste 0 -- -- 92
2020-03-01 05:00:00 5.8 7 Sudoeste 23 Oeste 0 -- -- 89
2020-03-01 04:00:00 5.1 2 Sudoeste 5 Sudeste 0 -- -- 99
2020-03-01 03:00:00 5.2 2 Norte 5 Sur 0 -- -- 98
2020-03-01 02:00:00 5.6 0 Calma 5 Sur 0 -- -- 98
2020-03-01 01:00:00 5.7 0 Calma 5 Este 0 -- -- 97
2020-03-01 00:00:00 6.2 2 Sudoeste 7 Nordeste 0.2 -- -- 96
2020-02-29 23:00:00 6.5 3 Sudeste 5 Este 0.6 -- -- 94
2020-02-29 22:00:00 6.8 0 Calma 5 Nordeste 0.2 -- -- 92
2020-02-29 21:00:00 7.4 0 Calma 10 Oeste 0 -- -- 88
2020-02-29 20:00:00 8.3 3 Sudoeste 14 Oeste 0 -- -- 74
2020-02-29 19:00:00 8.6 5 Sudoeste 20 Sudoeste 0 -- -- 74
2020-02-29 18:00:00 10 12 Sudoeste 25 Sudoeste 0 -- -- 62
2020-02-29 17:00:00 11 12 Sudoeste 26 Sudoeste 0 -- -- 59
2020-02-29 16:00:00 12.1 14 Sudoeste 25 Sudoeste 0 -- -- 52
2020-02-29 15:00:00 12.9 12 Sudoeste 27 Sudoeste 0 -- -- 51
2020-02-29 14:00:00 11.7 10 Sudoeste 21 Sudoeste 0 -- -- 54
2020-02-29 13:00:00 12 10 Sudoeste 21 Sudoeste 0 -- -- 47
2020-02-29 12:00:00 10.4 8 Sudoeste 18 Sur 0 -- -- 59
2020-02-29 11:00:00 8.3 2 Sur 8 Sudoeste 0 -- -- 74
2020-02-29 10:00:00 5.9 3 Nordeste 7 Norte 0 -- -- 86
2020-02-29 09:00:00 3.6 3 Sudoeste 8 Sudeste 0 -- -- 98
2020-02-29 08:00:00 1.7 3 Norte 7 Noroeste 0 -- -- 98
2020-02-29 07:00:00 1.2 4 Norte 6 Norte 0 -- -- 98
2020-02-29 06:00:00 0.7 0 Calma 5 Este 0 -- -- 96
2020-02-29 05:00:00 1.1 0 Calma 5 Sudeste 0 -- -- 95
2020-02-29 04:00:00 1.9 2 Norte 5 Sudeste 0 -- -- 93
2020-02-29 03:00:00 2.9 2 Oeste 5 Sudeste 0 -- -- 89
2020-02-29 02:00:00 4.3 0 Calma 5 Sudeste 0 -- -- 87
2020-02-29 01:00:00 4.6 2 Oeste 5 Noroeste 0 -- -- 89
2020-02-29 00:00:00 4.1 0 Calma 2 Sudeste 0 -- -- 89
2020-02-28 23:00:00 4.3 0 Calma 5 Sudoeste 0 -- -- 84
2020-02-28 22:00:00 5.9 0 Calma 8 Sudoeste 0 -- -- 76
2020-02-28 21:00:00 8.3 0 Calma 10 Oeste 0 -- -- 71
2020-02-28 20:00:00 10.2 6 Sudoeste 17 Oeste 0 -- -- 68
2020-02-28 19:00:00 11.5 5 Sudoeste 25 Oeste 0 -- -- 62
2020-02-28 18:00:00 13.3 14 Oeste 24 Sudoeste 0 -- -- 56
2020-02-28 17:00:00 15.6 11 Sudoeste 20 Sudoeste 0 -- -- 47
2020-02-28 16:00:00 16.1 12 Sudoeste 28 Sudoeste 0 -- -- 44
2020-02-28 15:00:00 16.6 15 Sudoeste 28 Sudoeste 0 -- -- 43
2020-02-28 14:00:00 16.9 14 Sudoeste 22 Sudoeste 0 -- -- 37
2020-02-28 13:00:00 16.2 14 Sudoeste 24 Sudoeste 0 -- -- 41
2020-02-28 12:00:00 13.7 15 Sudoeste 26 Sudoeste 0 -- -- 47
2020-02-28 11:00:00 11.4 6 Sur 16 Sudoeste 0 -- -- 58
2020-02-28 10:00:00 7.8 5 Sudeste 7 Sudeste 0 -- -- 72
2020-02-28 09:00:00 1.8 3 Sur 5 Norte 0 -- -- 93
2020-02-28 08:00:00 0.9 4 Nordeste 6 Oeste 0 -- -- 90
2020-02-28 07:00:00 2.2 2 Noroeste 10 Sur 0 -- -- 88
2020-02-28 06:00:00 2.9 3 Sudeste 9 Oeste 0 -- -- 84
2020-02-28 05:00:00 4.3 3 Sudoeste 20 Norte 0 -- -- 80
2020-02-28 04:00:00 6 6 Este 15 Sudeste 0 -- -- 75
2020-02-28 03:00:00 5.9 3 Este 15 Nordeste 0 -- -- 79
2020-02-28 02:00:00 7.4 5 Oeste 20 Sudeste 0 -- -- 77
2020-02-28 01:00:00 7 3 Norte 9 Sudeste 0 -- -- 82
2020-02-28 00:00:00 7.6 4 Nordeste 10 Sudeste 0 -- -- 79